Crowley Lake, CA

10:12 PM PST on December 10, 2016 (GMT -0800)
Sierra Springs | | Change Station

Elev 6886 ft 37.57 °N, 118.74 °W | Updated 3 seconds ago

Mostly Cloudy
Mostly Cloudy
42.3 °F
Feels Like 37 °F
N
9.0
Wind Variable Wind from NE

Today
High -- | Low -- °F
--% Chance of Precip.
Yesterday
High -- | Low -- °F
Precip. -- in
Pressure 30.03 in
Visibility 10.0 miles
Clouds Scattered Clouds 1600 ft
Mostly Cloudy 2400 ft
Overcast 7000 ft
Windchill 37 °F
Dew Point 35 °F
Humidity 76%
Rainfall 0.00 in
Snow Depth Not available.
6:59 AM 4:36 PM
Waxing Gibbous, 89% visible
METAR KMMH 110555Z AUTO 22022G53KT 10SM -DZ SCT016 BKN024 OVC070 09/01 A3003 RMK AO2 T00850008 10100 20051 401250013
Pressure 30.03 in
Visibility 10.0 miles
Clouds Scattered Clouds 1600 ft
Mostly Cloudy 2400 ft
Overcast 7000 ft
Windchill 37 °F
Dew Point 35 °F
Humidity 76%
Rainfall 0.00 in
Snow Depth Not available.
6:59 AM 4:36 PM
Waxing Gibbous, 89% visible
METAR KMMH 110555Z AUTO 22022G53KT 10SM -DZ SCT016 BKN024 OVC070 09/01 A3003 RMK AO2 T00850008 10100 20051 401250013

10-Day Weather Forecast

Almanac

Astronomy

Dec. 10, 2016 Rise Set
Actual Time
Civil Twilight
Nautical Twilight
Astronomical Twilight
Moon
Length of Visible Light
Length of Day
Tomorrow will be .
, % of the Moon is Illuminated

Today's Extremes

State Highs State Lows

Community

WunderPhotos

Upload Photos

1,956,706 photos uploaded!

WunderBlog® & News

Nearby

Air Quality

  Air Quality AQ Index Pollutant
Not available.

Snow Depth

Station Depth Elevation

Earthquake Activity

City Distance Mag. Time & Date
Minimum magnitude displayed is 2.5.

Coastal Water Temperatures

Place Temperature

Stations

Nearby Weather Stations

Station Location Temp. Windchill Dew Point Humidity Wind Precip. Elev Updated Type
                   

Watches & Warnings

There are currently no watches in effect.